createdAt,value
2018-04-29T00:01:45.408Z,14.60
2018-04-29T00:04:13.664Z,14.60
2018-04-29T00:06:41.908Z,14.60
2018-04-29T00:09:10.926Z,14.20
2018-04-29T00:11:39.169Z,14.20
2018-04-29T00:14:08.209Z,14.10
2018-04-29T00:16:36.456Z,14.10
2018-04-29T00:19:05.579Z,14.10
2018-04-29T00:21:33.833Z,14.10
2018-04-29T00:24:02.856Z,14.10
2018-04-29T00:26:31.127Z,14.10
2018-04-29T00:28:59.368Z,14.10
2018-04-29T00:31:27.636Z,14.10
2018-04-29T00:33:55.868Z,14.10
2018-04-29T00:36:24.125Z,14.00
2018-04-29T00:38:52.367Z,14.00
2018-04-29T00:41:20.719Z,14.00
2018-04-29T00:43:48.977Z,14.00
2018-04-29T00:46:17.280Z,14.00
2018-04-29T00:48:45.574Z,14.00
2018-04-29T00:51:14.560Z,13.80
2018-04-29T00:53:42.789Z,13.70
2018-04-29T00:56:11.812Z,13.50
2018-04-29T00:58:40.092Z,13.50
2018-04-29T01:01:08.349Z,13.50
2018-04-29T01:03:37.372Z,13.40
2018-04-29T01:06:05.663Z,13.30
2018-04-29T01:08:33.898Z,13.30
2018-04-29T01:11:03.033Z,13.20
2018-04-29T01:13:31.273Z,13.20
2018-04-29T01:16:00.314Z,13.20
2018-04-29T01:18:28.558Z,13.20
2018-04-29T01:20:57.579Z,13.10
2018-04-29T01:23:25.828Z,13.00
2018-04-29T01:25:54.849Z,12.90
2018-04-29T01:28:23.098Z,12.90
2018-04-29T01:30:52.131Z,12.80
2018-04-29T01:33:20.382Z,12.80
2018-04-29T01:35:49.401Z,12.80
2018-04-29T01:38:17.645Z,12.70
2018-04-29T01:40:46.677Z,12.70
2018-04-29T01:43:14.926Z,12.70
2018-04-29T01:45:43.941Z,12.50
2018-04-29T01:48:12.183Z,12.50
2018-04-29T01:50:40.480Z,12.50
2018-04-29T01:53:09.512Z,12.40
2018-04-29T01:55:37.767Z,12.40
2018-04-29T01:58:06.768Z,12.60
2018-04-29T02:00:35.036Z,12.50
2018-04-29T02:03:04.031Z,12.50
2018-04-29T02:05:33.048Z,12.60
2018-04-29T02:08:01.290Z,12.60
2018-04-29T02:10:29.630Z,12.70
2018-04-29T02:12:57.856Z,12.70
2018-04-29T02:15:26.887Z,12.70
2018-04-29T02:17:55.183Z,12.70
2018-04-29T02:20:23.456Z,12.70
2018-04-29T02:22:51.697Z,12.70
2018-04-29T02:25:20.720Z,12.70
2018-04-29T02:27:48.970Z,12.70
2018-04-29T02:30:17.986Z,12.60
2018-04-29T02:32:46.292Z,12.60
2018-04-29T02:35:14.569Z,12.50
2018-04-29T02:37:42.836Z,12.30
2018-04-29T02:40:11.097Z,12.20
2018-04-29T02:42:39.361Z,12.20
2018-04-29T02:45:08.396Z,12.20
2018-04-29T02:47:36.674Z,12.20
2018-04-29T02:50:04.931Z,12.30
2018-04-29T02:52:33.937Z,12.20
2018-04-29T02:55:02.237Z,12.20
2018-04-29T02:57:31.338Z,12.20
2018-04-29T02:59:59.614Z,12.10
2018-04-29T03:02:27.895Z,11.80
2018-04-29T03:04:56.150Z,11.80
2018-04-29T03:07:24.454Z,11.80
2018-04-29T03:09:52.726Z,11.80
2018-04-29T03:12:20.962Z,11.70
2018-04-29T03:14:49.985Z,11.60
2018-04-29T03:17:18.293Z,11.60
2018-04-29T03:19:46.551Z,11.70
2018-04-29T03:22:14.941Z,11.70
2018-04-29T03:24:43.180Z,11.70
2018-04-29T03:27:11.472Z,11.70
2018-04-29T03:29:39.716Z,11.60
2018-04-29T03:32:08.745Z,11.60
2018-04-29T03:34:36.983Z,11.50
2018-04-29T03:37:05.234Z,11.60
2018-04-29T03:39:33.512Z,11.60
2018-04-29T03:42:01.780Z,11.40
2018-04-29T03:44:30.027Z,11.40
2018-04-29T03:46:59.078Z,11.50
2018-04-29T03:49:27.308Z,11.50
2018-04-29T03:51:57.106Z,11.50
2018-04-29T03:54:25.339Z,11.50
2018-04-29T03:56:53.615Z,11.40
2018-04-29T03:59:33.880Z,11.40
2018-04-29T04:02:14.028Z,11.30
2018-04-29T04:04:42.322Z,11.30
2018-04-29T04:07:10.617Z,11.30
2018-04-29T04:09:38.933Z,11.40
2018-04-29T04:12:07.152Z,11.40
2018-04-29T04:14:35.387Z,11.50
2018-04-29T04:17:03.640Z,11.40
2018-04-29T04:19:31.886Z,11.40
2018-04-29T04:22:00.182Z,11.50
2018-04-29T04:24:28.418Z,11.60
2018-04-29T04:26:57.438Z,11.70
2018-04-29T04:29:25.683Z,11.70
2018-04-29T04:31:54.820Z,11.70
2018-04-29T04:34:23.062Z,11.70
2018-04-29T04:36:52.152Z,11.80
2018-04-29T04:39:20.490Z,11.80
2018-04-29T04:41:48.748Z,11.70
2018-04-29T04:44:17.045Z,11.80
2018-04-29T04:46:45.432Z,11.80
2018-04-29T04:49:13.672Z,11.80
2018-04-29T04:51:43.103Z,11.80
2018-04-29T04:54:11.341Z,11.80
2018-04-29T04:56:40.365Z,11.90
2018-04-29T04:59:08.611Z,12.00
2018-04-29T05:01:37.459Z,12.00
2018-04-29T05:04:05.702Z,12.10
2018-04-29T05:06:34.725Z,12.30
2018-04-29T05:09:02.969Z,12.30
2018-04-29T05:11:32.004Z,12.50
2018-04-29T05:14:00.249Z,12.50
2018-04-29T05:16:29.273Z,12.70
2018-04-29T05:18:57.511Z,12.70
2018-04-29T05:21:25.767Z,12.90
2018-04-29T05:23:54.006Z,13.00
2018-04-29T05:26:22.255Z,13.30
2018-04-29T05:28:51.264Z,13.80
2018-04-29T05:31:20.839Z,14.10
2018-04-29T05:33:49.888Z,14.30
2018-04-29T05:36:18.181Z,14.30
2018-04-29T05:38:47.081Z,14.60
2018-04-29T05:41:15.343Z,14.90
2018-04-29T05:43:43.640Z,15.00
2018-04-29T05:46:11.894Z,15.10
2018-04-29T05:48:40.195Z,15.50
2018-04-29T05:51:08.460Z,15.70
2018-04-29T05:53:36.762Z,15.80
2018-04-29T05:56:05.033Z,16.00
2018-04-29T05:58:34.040Z,16.10
2018-04-29T06:01:02.274Z,16.00
2018-04-29T06:03:31.595Z,16.10
2018-04-29T06:06:00.069Z,16.10
2018-04-29T06:08:29.074Z,15.80
2018-04-29T06:10:58.093Z,15.50
2018-04-29T06:13:26.386Z,15.50
2018-04-29T06:15:54.673Z,15.30
2018-04-29T06:18:22.932Z,15.10
2018-04-29T06:20:51.192Z,14.90
2018-04-29T06:23:19.441Z,14.70
2018-04-29T06:25:47.693Z,14.50
2018-04-29T06:28:15.927Z,14.40
2018-04-29T06:30:44.212Z,14.30
2018-04-29T06:33:13.197Z,13.90
2018-04-29T06:35:41.440Z,13.80
2018-04-29T06:38:09.788Z,13.70
2018-04-29T06:40:38.056Z,13.60
2018-04-29T06:43:06.354Z,13.50
2018-04-29T06:45:34.606Z,13.40
2018-04-29T06:48:02.913Z,13.40
2018-04-29T06:50:31.163Z,13.40
2018-04-29T06:52:59.463Z,13.50
2018-04-29T06:55:27.778Z,13.60
2018-04-29T06:57:56.004Z,13.70
2018-04-29T07:00:24.399Z,13.70
2018-04-29T07:02:52.669Z,13.80
2018-04-29T07:05:20.925Z,14.00
2018-04-29T07:07:49.985Z,14.60
2018-04-29T07:10:18.235Z,14.60
2018-04-29T07:12:46.559Z,15.30
2018-04-29T07:15:14.912Z,16.20
2018-04-29T07:17:43.173Z,17.10
2018-04-29T07:20:11.434Z,18.00
2018-04-29T07:22:39.668Z,18.80
2018-04-29T07:25:08.247Z,19.60
2018-04-29T07:27:36.488Z,20.50
2018-04-29T07:30:05.504Z,21.90
2018-04-29T07:32:33.771Z,21.80
2018-04-29T07:35:02.017Z,21.90
2018-04-29T07:37:31.046Z,21.50
2018-04-29T07:39:59.449Z,21.40
2018-04-29T07:42:27.708Z,21.10
2018-04-29T07:44:55.957Z,20.80
2018-04-29T07:47:24.989Z,20.20
2018-04-29T07:49:53.237Z,20.20
2018-04-29T07:52:22.295Z,19.80
2018-04-29T07:54:50.514Z,19.70
2018-04-29T07:57:19.654Z,19.40
2018-04-29T07:59:47.972Z,19.40
2018-04-29T08:02:16.224Z,19.30
2018-04-29T08:04:44.453Z,19.20
2018-04-29T08:07:13.582Z,18.90
2018-04-29T08:09:41.835Z,18.90
2018-04-29T08:12:10.857Z,18.60
2018-04-29T08:14:39.101Z,18.60
2018-04-29T08:17:08.133Z,18.20
2018-04-29T08:19:36.424Z,18.20
2018-04-29T08:22:04.732Z,18.30
2018-04-29T08:24:32.968Z,18.60
2018-04-29T08:27:01.225Z,19.50
2018-04-29T08:29:30.824Z,20.30
2018-04-29T08:31:59.846Z,20.10
2018-04-29T08:34:28.873Z,20.00
2018-04-29T08:36:57.177Z,20.00
2018-04-29T08:39:25.397Z,19.90
2018-04-29T08:41:53.717Z,19.60
2018-04-29T08:44:22.675Z,19.30
2018-04-29T08:46:50.953Z,19.30
2018-04-29T08:49:19.982Z,19.20
2018-04-29T08:51:48.239Z,19.20
2018-04-29T08:54:16.549Z,19.10
2018-04-29T08:56:44.828Z,19.10
2018-04-29T08:59:13.060Z,18.90
2018-04-29T09:01:42.185Z,18.70
2018-04-29T09:04:10.370Z,18.70
2018-04-29T09:06:38.629Z,18.70
2018-04-29T09:09:06.925Z,18.60
2018-04-29T09:11:35.185Z,18.50
2018-04-29T09:14:03.422Z,18.50
2018-04-29T09:16:32.447Z,18.60
2018-04-29T09:19:01.476Z,18.80
2018-04-29T09:21:29.752Z,18.80
2018-04-29T09:23:58.044Z,19.00
2018-04-29T09:26:26.292Z,19.20
2018-04-29T09:28:55.326Z,19.60
2018-04-29T09:31:23.557Z,19.50
2018-04-29T09:33:52.580Z,19.90
2018-04-29T09:36:20.820Z,19.90
2018-04-29T09:38:49.077Z,19.90
2018-04-29T09:41:17.312Z,20.00
2018-04-29T09:43:45.707Z,20.00
2018-04-29T09:46:14.641Z,20.00
2018-04-29T09:48:42.960Z,20.00
2018-04-29T09:51:11.407Z,19.90
2018-04-29T09:53:40.535Z,19.60
2018-04-29T09:56:09.706Z,19.40
2018-04-29T09:58:38.768Z,19.30
2018-04-29T10:01:12.776Z,19.30
2018-04-29T10:03:40.971Z,19.30
2018-04-29T10:06:09.211Z,19.40
2018-04-29T10:08:37.472Z,19.40
2018-04-29T10:11:06.468Z,19.60
2018-04-29T10:13:35.499Z,20.10
2018-04-29T10:16:03.738Z,20.10
2018-04-29T10:18:32.785Z,23.50
2018-04-29T10:21:01.046Z,23.50
2018-04-29T10:23:29.345Z,25.20
2018-04-29T10:25:57.588Z,26.70
2018-04-29T10:28:26.725Z,29.10
2018-04-29T10:30:54.994Z,29.00
2018-04-29T10:33:23.276Z,29.80
2018-04-29T10:35:51.527Z,30.80
2018-04-29T10:38:19.800Z,31.60
2018-04-29T10:40:48.821Z,32.80
2018-04-29T10:43:17.089Z,32.70
2018-04-29T10:45:45.368Z,32.50
2018-04-29T10:48:13.632Z,33.10
2018-04-29T10:50:42.674Z,33.60
2018-04-29T10:53:10.945Z,33.60
2018-04-29T10:55:39.186Z,33.90
2018-04-29T10:58:08.944Z,34.20
2018-04-29T11:00:37.223Z,34.20
2018-04-29T11:03:05.481Z,34.40
2018-04-29T11:05:33.725Z,34.60
2018-04-29T11:08:01.983Z,34.50
2018-04-29T11:10:30.236Z,34.60
2018-04-29T11:12:58.527Z,34.60
2018-04-29T11:15:26.775Z,34.50
2018-04-29T11:17:55.035Z,33.90
2018-04-29T11:20:24.046Z,34.20
2018-04-29T11:22:52.315Z,34.10
2018-04-29T11:25:21.341Z,34.70
2018-04-29T11:27:49.628Z,34.70
2018-04-29T11:30:17.918Z,34.60
2018-04-29T11:32:46.181Z,34.30
2018-04-29T11:35:14.453Z,34.60
2018-04-29T11:37:42.719Z,34.90
2018-04-29T11:40:11.055Z,35.10
2018-04-29T11:42:39.294Z,35.10
2018-04-29T11:45:07.561Z,34.80
2018-04-29T11:47:36.564Z,35.00
2018-04-29T11:50:04.805Z,34.90
2018-04-29T11:52:33.848Z,35.30
2018-04-29T11:55:02.084Z,35.30
2018-04-29T11:57:31.104Z,35.30
2018-04-29T11:59:59.415Z,35.20
2018-04-29T12:02:27.825Z,35.80
2018-04-29T12:04:55.971Z,36.00
2018-04-29T12:07:24.366Z,36.10
2018-04-29T12:09:52.705Z,36.50
2018-04-29T12:12:21.669Z,36.40
2018-04-29T12:14:49.886Z,36.40
2018-04-29T12:17:18.157Z,36.60
2018-04-29T12:19:47.164Z,36.20
2018-04-29T12:22:15.450Z,36.10
2018-04-29T12:24:43.688Z,35.90
2018-04-29T12:27:12.026Z,35.60
2018-04-29T12:29:41.123Z,35.00
2018-04-29T12:32:09.373Z,35.00
2018-04-29T12:34:38.431Z,34.00
2018-04-29T12:37:06.707Z,34.00
2018-04-29T12:39:34.970Z,33.90
2018-04-29T12:42:03.204Z,34.10
2018-04-29T12:44:32.229Z,33.50
2018-04-29T12:47:00.466Z,33.50
2018-04-29T12:49:29.500Z,33.40
2018-04-29T12:51:57.729Z,33.30
2018-04-29T12:54:25.984Z,32.90
2018-04-29T12:56:54.229Z,32.40
2018-04-29T12:59:22.491Z,31.40
2018-04-29T13:01:51.673Z,30.40
2018-04-29T13:04:19.923Z,30.40
2018-04-29T13:06:48.165Z,30.20
2018-04-29T13:09:16.430Z,30.20
2018-04-29T13:11:45.448Z,31.00
2018-04-29T13:14:13.748Z,30.90
2018-04-29T13:16:43.527Z,31.80
2018-04-29T13:19:12.554Z,32.30
2018-04-29T13:21:40.876Z,32.20
2018-04-29T13:24:09.113Z,32.40
2018-04-29T13:26:37.363Z,32.30
2018-04-29T13:29:06.366Z,31.00
2018-04-29T13:31:34.622Z,31.00
2018-04-29T13:34:02.892Z,30.30
2018-04-29T13:36:31.127Z,29.70
2018-04-29T13:38:59.450Z,29.10
2018-04-29T13:41:27.693Z,28.60
2018-04-29T13:43:55.940Z,28.30
2018-04-29T13:46:24.953Z,27.70
2018-04-29T13:48:53.208Z,27.70
2018-04-29T13:51:22.252Z,27.20
2018-04-29T13:53:50.510Z,27.10
2018-04-29T13:56:18.775Z,26.90
2018-04-29T13:58:47.935Z,26.50
2018-04-29T14:01:16.037Z,26.40
2018-04-29T14:03:45.151Z,26.20
2018-04-29T14:06:14.198Z,26.10
2018-04-29T14:08:42.456Z,26.10
2018-04-29T14:11:10.732Z,25.90
2018-04-29T14:13:38.985Z,25.90
2018-04-29T14:16:07.349Z,25.80
2018-04-29T14:18:35.549Z,25.70
2018-04-29T14:21:03.813Z,25.70
2018-04-29T14:23:32.848Z,25.70
2018-04-29T14:26:01.096Z,25.70
2018-04-29T14:28:30.112Z,25.50
2018-04-29T14:30:58.394Z,25.50
2018-04-29T14:33:26.668Z,25.50
2018-04-29T14:35:54.902Z,25.50
2018-04-29T14:38:23.233Z,25.50
2018-04-29T14:40:51.483Z,25.50
2018-04-29T14:43:19.771Z,25.40
2018-04-29T14:45:48.017Z,25.40
2018-04-29T14:48:16.272Z,25.30
2018-04-29T14:50:44.534Z,25.30
2018-04-29T14:53:12.815Z,25.40
2018-04-29T14:55:41.052Z,25.50
2018-04-29T14:58:10.073Z,25.60
2018-04-29T15:00:38.532Z,25.50
2018-04-29T15:03:06.849Z,25.50
2018-04-29T15:05:35.099Z,25.50
2018-04-29T15:08:04.119Z,25.50
2018-04-29T15:10:32.455Z,25.50
2018-04-29T15:13:00.673Z,25.40
2018-04-29T15:15:29.070Z,25.40
2018-04-29T15:17:57.359Z,25.40
2018-04-29T15:20:25.604Z,25.40
2018-04-29T15:22:54.635Z,25.30
2018-04-29T15:25:22.877Z,25.30
2018-04-29T15:27:51.129Z,25.30
2018-04-29T15:30:20.889Z,25.40
2018-04-29T15:32:49.196Z,25.40
2018-04-29T15:35:17.460Z,25.50
2018-04-29T15:37:45.752Z,25.50
2018-04-29T15:40:14.025Z,25.50
2018-04-29T15:42:42.296Z,25.50
2018-04-29T15:45:10.723Z,25.50
2018-04-29T15:47:40.642Z,25.50
2018-04-29T15:50:08.912Z,25.50
2018-04-29T15:52:37.197Z,25.60
2018-04-29T15:55:05.444Z,25.60
2018-04-29T15:57:33.741Z,25.60
2018-04-29T16:00:02.013Z,25.60
2018-04-29T16:02:30.253Z,25.50
2018-04-29T16:04:58.523Z,25.50
2018-04-29T16:07:27.529Z,25.50
2018-04-29T16:09:55.851Z,25.50
2018-04-29T16:12:24.081Z,25.50
2018-04-29T16:14:53.106Z,25.50
2018-04-29T16:17:22.112Z,25.40
2018-04-29T16:19:50.373Z,25.40
2018-04-29T16:22:18.678Z,25.40
2018-04-29T16:24:46.992Z,25.40
2018-04-29T16:27:15.341Z,25.40
2018-04-29T16:29:43.601Z,25.40
2018-04-29T16:32:11.889Z,25.40
2018-04-29T16:34:40.169Z,25.40
2018-04-29T16:37:08.420Z,25.30
2018-04-29T16:39:37.430Z,25.30
2018-04-29T16:42:05.728Z,25.30
2018-04-29T16:44:34.014Z,25.30
2018-04-29T16:47:02.261Z,25.20
2018-04-29T16:49:30.520Z,25.30
2018-04-29T16:51:59.559Z,25.20
2018-04-29T16:54:27.819Z,25.20
2018-04-29T16:56:56.739Z,25.10
2018-04-29T16:59:25.300Z,25.00
2018-04-29T17:01:53.538Z,24.90
2018-04-29T17:04:21.801Z,24.90
2018-04-29T17:06:50.064Z,24.80
2018-04-29T17:09:18.324Z,24.80
2018-04-29T17:11:46.712Z,24.80
2018-04-29T17:14:15.215Z,24.70
2018-04-29T17:16:43.574Z,24.60
2018-04-29T17:19:12.859Z,24.60
2018-04-29T17:21:41.187Z,24.60
2018-04-29T17:24:09.459Z,24.40
2018-04-29T17:26:37.902Z,24.40
2018-04-29T17:29:06.236Z,24.50
2018-04-29T17:31:34.475Z,24.40
2018-04-29T17:34:03.571Z,24.40
2018-04-29T17:36:31.814Z,24.30
2018-04-29T17:39:01.891Z,24.30
2018-04-29T17:41:30.227Z,24.30
2018-04-29T17:43:58.545Z,24.20
2018-04-29T17:46:28.717Z,24.20
2018-04-29T17:48:57.044Z,24.10
2018-04-29T17:51:25.321Z,24.10
2018-04-29T17:53:53.588Z,23.90
2018-04-29T17:56:21.867Z,23.90
2018-04-29T17:58:50.146Z,23.80
2018-04-29T18:01:18.470Z,23.80
2018-04-29T18:03:46.658Z,23.70
2018-04-29T18:06:16.722Z,23.70
2018-04-29T18:08:45.002Z,23.70
2018-04-29T18:11:13.258Z,23.60
2018-04-29T18:13:41.546Z,23.50
2018-04-29T18:16:09.825Z,23.50
2018-04-29T18:18:38.100Z,23.40
2018-04-29T18:21:06.441Z,23.40
2018-04-29T18:23:34.620Z,23.30
2018-04-29T18:26:03.758Z,23.20
2018-04-29T18:28:32.047Z,23.10
2018-04-29T18:31:00.311Z,23.10
2018-04-29T18:33:28.565Z,23.10
2018-04-29T18:35:57.594Z,23.00
2018-04-29T18:38:25.834Z,23.00
2018-04-29T18:40:54.913Z,22.80
2018-04-29T18:43:23.152Z,22.70
2018-04-29T18:45:51.409Z,22.70
2018-04-29T18:48:19.861Z,22.60
2018-04-29T18:50:48.286Z,22.50
2018-04-29T18:53:16.386Z,22.50
2018-04-29T18:55:44.648Z,22.40
2018-04-29T18:58:13.824Z,22.40
2018-04-29T19:00:42.125Z,22.40
2018-04-29T19:03:10.367Z,22.40
2018-04-29T19:05:44.425Z,22.40
2018-04-29T19:08:12.672Z,22.20
2018-04-29T19:10:41.701Z,22.20
2018-04-29T19:13:09.943Z,22.20
2018-04-29T19:15:38.962Z,22.10
2018-04-29T19:18:07.204Z,22.00
2018-04-29T19:20:35.463Z,22.00
2018-04-29T19:23:03.708Z,21.90
2018-04-29T19:25:31.956Z,21.90
2018-04-29T19:28:00.964Z,22.00
2018-04-29T19:30:29.232Z,22.00
2018-04-29T19:32:58.372Z,21.90
2018-04-29T19:35:26.646Z,21.90
2018-04-29T19:37:54.876Z,21.90
2018-04-29T19:40:23.141Z,21.90
2018-04-29T19:42:51.382Z,21.70
2018-04-29T19:45:19.645Z,21.80
2018-04-29T19:47:47.919Z,21.70
2018-04-29T19:50:17.641Z,21.60
2018-04-29T19:52:45.895Z,21.60
2018-04-29T19:55:14.945Z,21.60
2018-04-29T19:57:43.217Z,21.60
2018-04-29T20:00:11.520Z,21.60
2018-04-29T20:02:39.736Z,21.60
2018-04-29T20:05:07.993Z,21.60
2018-04-29T20:07:37.015Z,21.40
2018-04-29T20:10:06.033Z,21.40
2018-04-29T20:12:34.409Z,21.30
2018-04-29T20:15:02.689Z,21.30
2018-04-29T20:17:30.933Z,21.30
2018-04-29T20:19:59.176Z,21.30
2018-04-29T20:22:27.418Z,21.20
2018-04-29T20:24:55.696Z,21.20
2018-04-29T20:27:23.949Z,21.10
2018-04-29T20:29:53.343Z,21.00
2018-04-29T20:32:48.313Z,21.00
2018-04-29T20:35:16.592Z,20.90
2018-04-29T20:37:44.874Z,20.90
2018-04-29T20:40:13.128Z,20.90
2018-04-29T20:42:41.432Z,20.80
2018-04-29T20:45:09.695Z,20.70
2018-04-29T20:47:37.937Z,20.70
2018-04-29T20:50:06.206Z,20.80
2018-04-29T20:52:34.453Z,20.80
2018-04-29T20:55:02.758Z,20.90
2018-04-29T20:57:31.033Z,20.80
2018-04-29T20:59:59.277Z,20.90
2018-04-29T21:02:27.528Z,20.90
2018-04-29T21:04:56.557Z,20.80
2018-04-29T21:07:24.804Z,20.70
2018-04-29T21:09:53.110Z,20.70
2018-04-29T21:12:21.375Z,20.70
2018-04-29T21:14:49.637Z,20.60
2018-04-29T21:17:18.737Z,20.60
2018-04-29T21:19:46.937Z,20.60
2018-04-29T21:22:15.183Z,20.50
2018-04-29T21:24:44.256Z,20.50
2018-04-29T21:29:42.289Z,20.40
2018-04-29T21:32:10.536Z,20.30
2018-04-29T21:34:38.910Z,20.20
2018-04-29T21:37:07.131Z,20.20
2018-04-29T21:39:35.413Z,20.10
2018-04-29T21:42:03.728Z,20.00
2018-04-29T21:44:32.105Z,20.10
2018-04-29T21:47:00.349Z,20.00
2018-04-29T21:49:28.675Z,19.90
2018-04-29T21:51:57.608Z,19.80
2018-04-29T21:54:26.648Z,19.80
2018-04-29T21:56:54.884Z,19.80
2018-04-29T21:59:23.885Z,19.70
2018-04-29T22:01:52.907Z,19.70
2018-04-29T22:04:21.233Z,19.70
2018-04-29T22:06:50.170Z,19.70
2018-04-29T22:09:18.479Z,19.70
2018-04-29T22:11:46.762Z,19.80
2018-04-29T22:14:15.005Z,19.80
2018-04-29T22:16:43.315Z,19.80
2018-04-29T22:19:11.559Z,19.70
2018-04-29T22:21:39.906Z,19.70
2018-04-29T22:24:08.853Z,19.70
2018-04-29T22:26:37.142Z,19.70
2018-04-29T22:29:05.412Z,19.70
2018-04-29T22:31:33.676Z,19.70
2018-04-29T22:34:01.928Z,19.70
2018-04-29T22:36:31.101Z,19.70
2018-04-29T22:38:59.479Z,19.70
2018-04-29T22:41:27.858Z,19.70
2018-04-29T22:43:56.081Z,19.70
2018-04-29T22:46:25.230Z,19.70
2018-04-29T22:48:53.480Z,19.70
2018-04-29T22:51:22.508Z,19.70
2018-04-29T22:53:50.749Z,19.60
2018-04-29T22:56:19.784Z,19.50
2018-04-29T22:58:48.061Z,19.50
2018-04-29T23:01:16.342Z,19.50
2018-04-29T23:03:44.610Z,19.60
2018-04-29T23:06:12.868Z,19.60
2018-04-29T23:08:41.104Z,19.50
2018-04-29T23:11:09.363Z,19.50
2018-04-29T23:13:37.608Z,19.50
2018-04-29T23:16:05.860Z,19.60
2018-04-29T23:18:34.873Z,19.60
2018-04-29T23:21:03.904Z,19.70
2018-04-29T23:23:32.149Z,19.60
2018-04-29T23:26:01.216Z,19.60
2018-04-29T23:28:29.457Z,19.60
2018-04-29T23:30:57.793Z,19.60
2018-04-29T23:33:26.129Z,19.70
2018-04-29T23:35:54.390Z,19.70
2018-04-29T23:38:22.675Z,19.70
2018-04-29T23:40:50.956Z,19.70
2018-04-29T23:43:19.205Z,19.70
2018-04-29T23:45:48.225Z,19.60
2018-04-29T23:48:16.532Z,19.60
2018-04-29T23:50:44.925Z,19.60
2018-04-29T23:53:13.172Z,19.60
2018-04-29T23:55:41.428Z,19.40
2018-04-29T23:58:09.727Z,19.40
